createdAt,value
2019-02-28T00:00:06.625Z,99.90
2019-02-28T00:02:40.310Z,99.90
2019-02-28T00:05:13.649Z,99.90
2019-02-28T00:07:45.604Z,99.90
2019-02-28T00:10:18.455Z,99.90
2019-02-28T00:12:50.358Z,99.90
2019-02-28T00:15:22.200Z,99.90
2019-02-28T00:17:54.014Z,99.90
2019-02-28T00:20:25.941Z,99.90
2019-02-28T00:22:57.752Z,99.90
2019-02-28T00:25:30.687Z,99.90
2019-02-28T00:28:02.595Z,99.90
2019-02-28T00:30:57.875Z,99.90
2019-02-28T00:33:31.625Z,99.90
2019-02-28T00:36:19.241Z,99.90
2019-02-28T00:38:52.676Z,99.90
2019-02-28T00:41:24.629Z,99.90
2019-02-28T00:43:57.936Z,99.90
2019-02-28T00:46:29.960Z,99.90
2019-02-28T00:49:02.858Z,99.90
2019-02-28T00:51:36.015Z,99.90
2019-02-28T00:54:09.711Z,99.90
2019-02-28T00:56:42.582Z,99.90
2019-02-28T00:59:15.715Z,99.90
2019-02-28T01:01:48.887Z,99.90
2019-02-28T01:04:20.781Z,99.90
2019-02-28T01:06:52.742Z,99.90
2019-02-28T01:09:30.068Z,99.90
2019-02-28T01:12:00.768Z,99.90
2019-02-28T01:17:46.947Z,99.90
2019-02-28T01:20:20.460Z,99.90
2019-02-28T01:22:55.124Z,99.90
2019-02-28T01:25:28.657Z,99.90
2019-02-28T01:28:02.135Z,99.90
2019-02-28T01:30:37.085Z,99.90
2019-02-28T01:33:10.681Z,99.90
2019-02-28T01:36:01.694Z,99.90
2019-02-28T01:38:36.257Z,99.90
2019-02-28T01:41:11.184Z,99.90
2019-02-28T01:43:46.218Z,99.90
2019-02-28T01:46:20.609Z,99.90
2019-02-28T01:48:54.551Z,99.90
2019-02-28T01:51:35.714Z,99.90
2019-02-28T01:54:06.428Z,99.90
2019-02-28T01:56:39.915Z,99.90
2019-02-28T01:59:13.387Z,99.90
2019-02-28T02:02:06.767Z,99.90
2019-02-28T02:04:43.209Z,99.90
2019-02-28T02:07:16.492Z,99.90
2019-02-28T02:09:50.278Z,99.90
2019-02-28T02:12:24.738Z,99.90
2019-02-28T02:14:59.467Z,99.90
2019-02-28T02:17:35.566Z,99.90
2019-02-28T02:20:11.063Z,99.90
2019-02-28T02:22:45.704Z,99.90
2019-02-28T02:25:17.681Z,99.90
2019-02-28T02:27:53.458Z,99.90
2019-02-28T02:30:25.357Z,99.90
2019-02-28T02:32:59.543Z,99.90
2019-02-28T02:35:31.441Z,99.90
2019-02-28T02:38:04.657Z,99.90
2019-02-28T02:40:39.257Z,99.90
2019-02-28T02:43:12.457Z,99.90
2019-02-28T02:45:44.297Z,99.90
2019-02-28T02:48:18.384Z,99.90
2019-02-28T02:50:51.289Z,99.90
2019-02-28T02:53:24.225Z,99.90
2019-02-28T02:55:56.081Z,99.90
2019-02-28T02:58:28.209Z,99.90
2019-02-28T03:01:00.295Z,99.90
2019-02-28T03:03:33.265Z,99.90
2019-02-28T03:06:12.148Z,99.90
2019-02-28T03:08:41.096Z,99.90
2019-02-28T03:11:15.410Z,99.90
2019-02-28T03:13:47.329Z,99.90
2019-02-28T03:16:19.242Z,99.90
2019-02-28T03:18:56.480Z,99.90
2019-02-28T03:21:50.885Z,99.90
2019-02-28T03:24:18.137Z,99.90
2019-02-28T03:26:51.828Z,99.90
2019-02-28T03:29:25.113Z,99.90
2019-02-28T03:32:00.240Z,99.90
2019-02-28T03:34:32.379Z,99.90
2019-02-28T03:37:04.358Z,99.90
2019-02-28T03:39:36.409Z,99.90
2019-02-28T03:42:08.691Z,99.90
2019-02-28T03:44:42.031Z,99.90
2019-02-28T03:47:13.980Z,99.90
2019-02-28T03:49:49.835Z,99.90
2019-02-28T03:52:22.263Z,99.90
2019-02-28T03:54:54.453Z,99.90
2019-02-28T03:57:29.486Z,99.90
2019-02-28T04:00:01.361Z,99.90
2019-02-28T04:02:36.251Z,99.90
2019-02-28T04:05:09.147Z,99.90
2019-02-28T04:07:42.658Z,99.90
2019-02-28T04:10:16.849Z,99.90
2019-02-28T04:12:49.115Z,99.90
2019-02-28T04:15:21.662Z,99.90
2019-02-28T04:17:53.856Z,99.90
2019-02-28T04:20:25.912Z,99.90
2019-02-28T04:22:59.873Z,99.90
2019-02-28T04:25:32.083Z,99.90
2019-02-28T04:28:04.078Z,99.90
2019-02-28T04:30:42.406Z,99.90
2019-02-28T04:33:10.198Z,99.90
2019-02-28T04:35:43.322Z,99.90
2019-02-28T04:38:20.136Z,99.90
2019-02-28T04:40:48.933Z,99.90
2019-02-28T04:43:21.114Z,99.90
2019-02-28T04:45:57.703Z,99.90
2019-02-28T04:48:29.404Z,99.90
2019-02-28T04:51:02.272Z,99.90
2019-02-28T04:53:35.072Z,99.90
2019-02-28T04:56:11.016Z,99.90
2019-02-28T04:58:40.946Z,99.90
2019-02-28T05:01:13.513Z,99.90
2019-02-28T05:03:48.024Z,99.90
2019-02-28T05:06:21.166Z,99.90
2019-02-28T05:08:55.221Z,99.90
2019-02-28T05:11:30.719Z,99.90
2019-02-28T05:14:02.964Z,99.90
2019-02-28T05:16:36.217Z,99.90
2019-02-28T05:19:09.282Z,99.90
2019-02-28T05:21:42.202Z,99.90
2019-02-28T05:24:14.265Z,99.90
2019-02-28T05:26:46.387Z,99.90
2019-02-28T05:29:18.275Z,99.90
2019-02-28T05:31:50.214Z,99.90
2019-02-28T05:34:22.266Z,99.90
2019-02-28T05:36:54.090Z,99.90
2019-02-28T05:39:28.266Z,99.90
2019-02-28T05:42:01.791Z,99.90
2019-02-28T05:44:33.916Z,99.90
2019-02-28T05:47:10.727Z,99.90
2019-02-28T05:49:42.688Z,99.90
2019-02-28T05:52:14.670Z,99.90
2019-02-28T05:54:47.347Z,99.90
2019-02-28T05:57:21.377Z,99.90
2019-02-28T05:59:54.298Z,99.90
2019-02-28T06:02:26.529Z,99.90
2019-02-28T06:04:58.458Z,99.90
2019-02-28T06:07:31.485Z,99.90
2019-02-28T06:10:04.739Z,99.90
2019-02-28T06:12:40.388Z,99.90
2019-02-28T06:15:11.662Z,99.90
2019-02-28T06:17:44.972Z,99.90
2019-02-28T06:20:18.031Z,99.90
2019-02-28T06:22:50.094Z,99.90
2019-02-28T06:25:25.607Z,99.90
2019-02-28T06:27:57.419Z,99.90
2019-02-28T06:30:29.509Z,99.90
2019-02-28T06:33:03.133Z,99.90
2019-02-28T06:35:35.223Z,99.90
2019-02-28T06:38:08.234Z,99.90
2019-02-28T06:40:42.677Z,99.90
2019-02-28T06:43:14.831Z,99.90
2019-02-28T06:45:47.852Z,99.90
2019-02-28T06:48:25.797Z,99.90
2019-02-28T06:50:56.871Z,99.90
2019-02-28T06:53:32.178Z,99.90
2019-02-28T06:56:04.488Z,99.90
2019-02-28T06:58:36.688Z,99.90
2019-02-28T07:01:08.576Z,99.90
2019-02-28T07:03:42.372Z,99.90
2019-02-28T07:06:14.105Z,99.90
2019-02-28T07:08:47.135Z,99.90
2019-02-28T07:11:19.836Z,99.90
2019-02-28T07:13:53.706Z,99.90
2019-02-28T07:16:25.574Z,99.90
2019-02-28T07:18:57.492Z,99.90
2019-02-28T07:21:29.559Z,99.90
2019-02-28T07:24:02.838Z,99.90
2019-02-28T07:26:35.542Z,99.90
2019-02-28T07:29:11.149Z,99.90
2019-02-28T07:31:44.244Z,99.90
2019-02-28T07:34:22.053Z,99.90
2019-02-28T07:36:56.795Z,99.90
2019-02-28T07:39:29.631Z,99.90
2019-02-28T07:42:03.679Z,99.90
2019-02-28T07:44:38.046Z,99.90
2019-02-28T07:47:17.184Z,99.90
2019-02-28T07:49:50.070Z,99.90
2019-02-28T07:52:21.808Z,99.90
2019-02-28T07:54:55.797Z,99.90
2019-02-28T07:57:28.522Z,99.90
2019-02-28T08:00:00.692Z,99.90
2019-02-28T08:02:35.721Z,99.90
2019-02-28T08:05:09.087Z,99.90
2019-02-28T08:07:50.269Z,99.90
2019-02-28T08:10:20.200Z,99.90
2019-02-28T08:12:52.211Z,99.90
2019-02-28T08:15:26.687Z,99.90
2019-02-28T08:17:58.844Z,99.90
2019-02-28T08:20:34.039Z,99.90
2019-02-28T08:23:05.266Z,99.90
2019-02-28T08:25:39.615Z,99.90
2019-02-28T08:28:13.455Z,99.90
2019-02-28T08:30:47.281Z,99.90
2019-02-28T08:33:19.942Z,99.90
2019-02-28T08:35:54.304Z,99.90
2019-02-28T08:38:30.081Z,99.90
2019-02-28T08:41:03.641Z,99.90
2019-02-28T08:43:36.762Z,99.90
2019-02-28T08:46:12.107Z,99.90
2019-02-28T08:48:43.614Z,99.90
2019-02-28T08:51:16.752Z,99.90
2019-02-28T08:53:51.363Z,99.90
2019-02-28T08:56:23.507Z,99.90
2019-02-28T08:58:55.511Z,99.90
2019-02-28T09:01:27.575Z,99.90
2019-02-28T09:04:04.996Z,99.90
2019-02-28T09:06:34.202Z,99.90
2019-02-28T09:09:09.431Z,99.90
2019-02-28T09:11:44.234Z,99.80
2019-02-28T09:14:17.800Z,98.70
2019-02-28T09:16:52.759Z,98.60
2019-02-28T09:19:24.742Z,97.40
2019-02-28T09:21:56.723Z,96.50
2019-02-28T09:24:29.853Z,94.90
2019-02-28T09:27:04.105Z,94.20
2019-02-28T09:29:36.942Z,93.10
2019-02-28T09:32:10.188Z,92.10
2019-02-28T09:34:41.912Z,90.40
2019-02-28T09:37:13.780Z,88.20
2019-02-28T09:39:45.615Z,88.60
2019-02-28T09:42:17.500Z,86.10
2019-02-28T09:44:49.390Z,83.10
2019-02-28T09:47:23.323Z,81.00
2019-02-28T09:49:55.986Z,80.60
2019-02-28T09:52:27.878Z,78.30
2019-02-28T09:54:59.889Z,78.10
2019-02-28T09:57:31.954Z,77.20
2019-02-28T10:00:03.858Z,74.90
2019-02-28T10:02:37.227Z,74.90
2019-02-28T10:05:11.676Z,74.20
2019-02-28T10:07:43.329Z,74.40
2019-02-28T10:10:17.412Z,74.20
2019-02-28T10:12:50.919Z,74.20
2019-02-28T10:15:22.798Z,74.40
2019-02-28T10:17:54.665Z,74.00
2019-02-28T10:20:28.516Z,74.00
2019-02-28T10:23:00.741Z,73.40
2019-02-28T10:25:32.693Z,72.30
2019-02-28T10:28:04.759Z,71.80
2019-02-28T10:30:36.604Z,71.20
2019-02-28T10:33:08.464Z,70.00
2019-02-28T10:35:40.335Z,70.10
2019-02-28T10:38:12.171Z,68.50
2019-02-28T10:40:44.104Z,67.90
2019-02-28T10:43:16.478Z,67.60
2019-02-28T10:45:48.449Z,65.70
2019-02-28T10:48:20.269Z,65.50
2019-02-28T10:50:52.123Z,64.50
2019-02-28T10:53:23.978Z,63.80
2019-02-28T10:55:57.934Z,63.70
2019-02-28T10:58:29.313Z,63.20
2019-02-28T11:01:01.147Z,62.50
2019-02-28T11:03:33.279Z,62.40
2019-02-28T11:06:05.354Z,63.70
2019-02-28T11:08:37.392Z,63.30
2019-02-28T11:11:10.433Z,62.90
2019-02-28T11:13:43.987Z,62.90
2019-02-28T11:16:16.092Z,60.90
2019-02-28T11:18:48.116Z,61.70
2019-02-28T11:21:19.914Z,61.70
2019-02-28T11:23:51.808Z,60.00
2019-02-28T11:26:24.646Z,60.50
2019-02-28T11:28:56.641Z,59.40
2019-02-28T11:31:28.438Z,59.10
2019-02-28T11:34:00.250Z,58.80
2019-02-28T11:36:34.156Z,58.30
2019-02-28T11:39:07.527Z,58.20
2019-02-28T11:41:39.492Z,58.20
2019-02-28T11:44:12.047Z,57.10
2019-02-28T11:46:45.688Z,57.00
2019-02-28T11:49:17.575Z,56.50
2019-02-28T11:51:52.889Z,56.10
2019-02-28T11:54:24.305Z,55.60
2019-02-28T11:56:56.191Z,55.20
2019-02-28T11:59:28.102Z,54.70
2019-02-28T12:01:59.923Z,53.10
2019-02-28T12:04:31.895Z,51.50
2019-02-28T12:07:03.744Z,51.90
2019-02-28T12:09:35.610Z,52.40
2019-02-28T12:12:10.433Z,52.60
2019-02-28T12:14:41.276Z,52.50
2019-02-28T12:17:15.061Z,52.80
2019-02-28T12:19:47.623Z,52.00
2019-02-28T12:22:20.132Z,51.90
2019-02-28T12:24:52.085Z,53.20
2019-02-28T12:27:24.442Z,54.10
2019-02-28T12:29:57.578Z,53.20
2019-02-28T12:32:29.360Z,52.80
2019-02-28T12:35:02.525Z,52.50
2019-02-28T12:37:34.451Z,52.50
2019-02-28T12:40:10.357Z,52.50
2019-02-28T12:42:41.676Z,52.00
2019-02-28T12:45:21.233Z,51.90
2019-02-28T12:47:52.602Z,52.00
2019-02-28T12:50:33.814Z,51.20
2019-02-28T12:53:05.843Z,51.00
2019-02-28T12:55:40.003Z,50.30
2019-02-28T12:58:12.076Z,50.50
2019-02-28T13:00:44.029Z,49.50
2019-02-28T13:03:19.210Z,49.30
2019-02-28T13:05:49.586Z,48.30
2019-02-28T13:08:21.568Z,48.60
2019-02-28T13:10:53.456Z,48.70
2019-02-28T13:13:27.751Z,49.30
2019-02-28T13:15:58.845Z,50.30
2019-02-28T13:18:30.689Z,49.80
2019-02-28T13:21:05.885Z,49.40
2019-02-28T13:23:36.108Z,49.20
2019-02-28T13:26:08.024Z,48.70
2019-02-28T13:28:39.935Z,49.60
2019-02-28T13:31:11.846Z,48.70
2019-02-28T13:33:43.758Z,48.30
2019-02-28T13:36:18.424Z,48.70
2019-02-28T13:38:49.481Z,49.10
2019-02-28T13:41:26.580Z,49.10
2019-02-28T13:43:59.412Z,49.00
2019-02-28T13:46:33.943Z,49.20
2019-02-28T13:49:04.558Z,49.10
2019-02-28T13:51:40.503Z,49.50
2019-02-28T13:54:09.920Z,49.80
2019-02-28T13:56:41.758Z,50.00
2019-02-28T13:59:13.599Z,50.10
2019-02-28T14:01:45.581Z,50.50
2019-02-28T14:04:19.405Z,51.50
2019-02-28T14:06:52.556Z,51.70
2019-02-28T14:09:24.417Z,51.80
2019-02-28T14:11:56.248Z,52.00
2019-02-28T14:14:28.103Z,52.70
2019-02-28T14:17:01.271Z,52.50
2019-02-28T14:19:34.723Z,53.40
2019-02-28T14:22:08.580Z,52.60
2019-02-28T14:24:40.202Z,51.90
2019-02-28T14:27:12.137Z,51.10
2019-02-28T14:29:48.349Z,50.00
2019-02-28T14:32:17.504Z,49.30
2019-02-28T14:34:49.424Z,48.60
2019-02-28T14:37:21.350Z,47.70
2019-02-28T14:39:53.115Z,47.40
2019-02-28T14:42:24.867Z,47.40
2019-02-28T14:44:57.790Z,47.20
2019-02-28T14:47:29.624Z,47.60
2019-02-28T14:50:01.603Z,48.60
2019-02-28T14:52:35.751Z,47.80
2019-02-28T14:55:07.944Z,47.70
2019-02-28T14:57:40.039Z,47.80
2019-02-28T15:00:17.824Z,48.60
2019-02-28T15:02:50.745Z,48.90
2019-02-28T15:05:23.899Z,49.20
2019-02-28T15:07:55.854Z,49.70
2019-02-28T15:10:28.139Z,50.00
2019-02-28T15:13:01.021Z,50.10
2019-02-28T15:15:33.002Z,50.40
2019-02-28T15:18:05.125Z,51.10
2019-02-28T15:20:37.027Z,51.60
2019-02-28T15:23:08.960Z,51.60
2019-02-28T15:25:40.839Z,51.80
2019-02-28T15:28:13.891Z,52.20
2019-02-28T15:30:46.234Z,52.10
2019-02-28T15:33:18.124Z,52.20
2019-02-28T15:35:50.504Z,52.40
2019-02-28T15:38:22.522Z,52.40
2019-02-28T15:40:55.756Z,52.70
2019-02-28T15:43:27.769Z,53.30
2019-02-28T15:45:59.715Z,53.00
2019-02-28T15:48:34.662Z,52.90
2019-02-28T15:51:05.395Z,53.30
2019-02-28T15:53:37.168Z,53.70
2019-02-28T15:56:13.401Z,54.50
2019-02-28T15:58:43.667Z,54.60
2019-02-28T16:01:15.407Z,55.10
2019-02-28T16:03:48.437Z,55.60
2019-02-28T16:06:20.730Z,56.00
2019-02-28T16:08:52.644Z,56.60
2019-02-28T16:11:24.697Z,56.90
2019-02-28T16:13:57.507Z,57.40
2019-02-28T16:16:29.535Z,57.60
2019-02-28T16:19:01.424Z,58.10
2019-02-28T16:21:33.292Z,58.50
2019-02-28T16:24:05.924Z,58.90
2019-02-28T16:26:37.775Z,59.20
2019-02-28T16:29:10.583Z,59.30
2019-02-28T16:31:42.494Z,60.00
2019-02-28T16:34:14.250Z,60.70
2019-02-28T16:36:46.102Z,61.40
2019-02-28T16:39:19.388Z,61.80
2019-02-28T16:41:51.304Z,62.10
2019-02-28T16:44:23.134Z,63.20
2019-02-28T16:46:55.136Z,63.80
2019-02-28T16:49:27.084Z,64.10
2019-02-28T16:51:58.937Z,64.90
2019-02-28T16:54:30.760Z,65.40
2019-02-28T16:57:02.635Z,65.70
2019-02-28T16:59:34.500Z,66.20
2019-02-28T17:02:06.661Z,66.80
2019-02-28T17:04:38.536Z,67.40
2019-02-28T17:07:10.481Z,67.70
2019-02-28T17:09:43.781Z,67.80
2019-02-28T17:12:34.362Z,68.20
2019-02-28T17:15:12.123Z,68.90
2019-02-28T17:17:50.114Z,69.10
2019-02-28T17:20:22.186Z,70.30
2019-02-28T17:22:54.128Z,70.10
2019-02-28T17:25:26.121Z,70.40
2019-02-28T17:28:05.465Z,70.70
2019-02-28T17:31:14.507Z,71.20
2019-02-28T17:33:46.842Z,71.50
2019-02-28T17:36:20.527Z,71.60
2019-02-28T17:38:52.685Z,72.00
2019-02-28T17:41:26.991Z,72.50
2019-02-28T17:44:45.473Z,73.00
2019-02-28T17:47:53.247Z,73.20
2019-02-28T17:50:56.586Z,73.50
2019-02-28T17:54:03.556Z,74.40
2019-02-28T17:57:22.149Z,75.80
2019-02-28T18:00:43.824Z,77.00
2019-02-28T18:03:27.204Z,78.90
2019-02-28T18:06:39.508Z,80.50
2019-02-28T18:09:34.755Z,82.00
2019-02-28T18:12:40.644Z,84.00
2019-02-28T18:15:37.884Z,85.20
2019-02-28T18:18:51.966Z,87.70
2019-02-28T18:22:01.677Z,89.00
2019-02-28T18:25:18.078Z,90.40
2019-02-28T18:28:39.846Z,90.90
2019-02-28T18:31:14.590Z,91.40
2019-02-28T18:34:09.682Z,92.00
2019-02-28T18:36:48.834Z,92.70
2019-02-28T18:39:22.535Z,93.40
2019-02-28T18:41:54.362Z,93.50
2019-02-28T18:44:27.261Z,94.20
2019-02-28T18:47:02.874Z,94.80
2019-02-28T18:49:48.551Z,95.50
2019-02-28T18:52:23.153Z,96.10
2019-02-28T18:55:05.723Z,97.30
2019-02-28T18:57:31.895Z,98.40
2019-02-28T19:00:04.628Z,99.50
2019-02-28T19:02:43.970Z,99.90
2019-02-28T19:05:17.655Z,99.90
2019-02-28T19:07:50.591Z,99.90
2019-02-28T19:10:23.935Z,98.50
2019-02-28T19:12:58.720Z,96.20
2019-02-28T19:18:38.878Z,90.70
2019-02-28T19:21:11.227Z,89.00
2019-02-28T19:23:44.757Z,88.90
2019-02-28T19:26:18.815Z,88.00
2019-02-28T19:28:50.797Z,87.50
2019-02-28T19:34:29.719Z,86.90
2019-02-28T19:37:12.593Z,87.80
2019-02-28T19:39:49.206Z,89.00
2019-02-28T19:42:24.475Z,90.00
2019-02-28T19:45:17.081Z,90.50
2019-02-28T19:47:59.963Z,91.30
2019-02-28T19:50:37.615Z,92.10
2019-02-28T19:53:09.595Z,92.70
2019-02-28T19:55:43.282Z,93.50
2019-02-28T19:58:27.199Z,94.60
2019-02-28T20:01:00.371Z,95.40
2019-02-28T20:03:33.480Z,96.90
2019-02-28T20:06:06.641Z,98.20
2019-02-28T20:08:58.154Z,99.60
2019-02-28T20:11:53.856Z,99.90
2019-02-28T20:14:41.093Z,99.90
2019-02-28T20:17:26.991Z,99.90
2019-02-28T20:20:01.307Z,99.90
2019-02-28T20:22:34.698Z,99.90
2019-02-28T20:25:10.117Z,99.90
2019-02-28T20:27:42.940Z,99.90
2019-02-28T20:30:17.719Z,99.90
2019-02-28T20:32:49.603Z,99.90
2019-02-28T20:35:26.826Z,99.90
2019-02-28T20:37:59.159Z,99.90
2019-02-28T20:40:33.463Z,99.90
2019-02-28T20:43:06.843Z,99.90
2019-02-28T20:45:40.040Z,99.90
2019-02-28T20:48:11.929Z,99.90
2019-02-28T20:50:46.386Z,99.90
2019-02-28T20:53:20.451Z,99.90
2019-02-28T20:55:53.320Z,99.90
2019-02-28T20:58:25.610Z,99.90
2019-02-28T21:01:00.394Z,99.90
2019-02-28T21:03:33.702Z,99.90
2019-02-28T21:06:06.707Z,99.90
2019-02-28T21:08:39.703Z,99.90
2019-02-28T21:11:12.896Z,99.90
2019-02-28T21:13:45.369Z,99.90
2019-02-28T21:16:17.695Z,99.90
2019-02-28T21:18:50.045Z,99.90
2019-02-28T21:21:24.392Z,99.90
2019-02-28T21:23:56.368Z,99.90
2019-02-28T21:26:29.270Z,99.90
2019-02-28T21:29:04.953Z,99.90
2019-02-28T21:31:38.939Z,99.90
2019-02-28T21:34:11.420Z,99.90
2019-02-28T21:36:44.644Z,99.90
2019-02-28T21:39:16.780Z,99.90
2019-02-28T21:41:51.546Z,99.90
2019-02-28T21:44:26.051Z,99.90
2019-02-28T21:47:01.772Z,99.90
2019-02-28T21:49:35.035Z,99.90
2019-02-28T21:52:07.030Z,99.90
2019-02-28T21:54:40.226Z,99.90
2019-02-28T21:57:14.491Z,99.90
2019-02-28T21:59:47.679Z,99.90
2019-02-28T22:02:19.694Z,99.90
2019-02-28T22:04:53.092Z,99.90
2019-02-28T22:07:26.225Z,99.90
2019-02-28T22:09:58.419Z,99.90
2019-02-28T22:12:31.386Z,99.90
2019-02-28T22:15:04.806Z,99.90
2019-02-28T22:17:38.083Z,99.90
2019-02-28T22:20:12.327Z,99.90
2019-02-28T22:22:44.166Z,99.90
2019-02-28T22:25:24.247Z,99.90
2019-02-28T22:27:56.126Z,99.90
2019-02-28T22:30:40.968Z,99.90
2019-02-28T22:33:19.411Z,99.90
2019-02-28T22:35:54.860Z,99.90
2019-02-28T22:38:26.791Z,99.90
2019-02-28T22:41:01.003Z,99.90
2019-02-28T22:43:34.134Z,99.90
2019-02-28T22:46:08.642Z,99.90
2019-02-28T22:48:41.622Z,99.90
2019-02-28T22:51:14.530Z,99.90
2019-02-28T22:53:47.695Z,99.90
2019-02-28T22:56:20.766Z,99.90
2019-02-28T22:58:53.683Z,99.90
2019-02-28T23:01:27.425Z,99.90
2019-02-28T23:04:00.545Z,99.90
2019-02-28T23:06:33.590Z,99.90
2019-02-28T23:09:08.026Z,99.90
2019-02-28T23:11:40.422Z,99.90
2019-02-28T23:14:14.914Z,99.90
2019-02-28T23:16:47.951Z,99.90
2019-02-28T23:19:21.910Z,99.90
2019-02-28T23:21:56.303Z,99.90
2019-02-28T23:24:29.193Z,99.90
2019-02-28T23:27:19.038Z,99.90
2019-02-28T23:29:57.752Z,99.90
2019-02-28T23:32:39.428Z,99.90
2019-02-28T23:35:19.373Z,99.90
2019-02-28T23:37:52.741Z,99.90
2019-02-28T23:40:25.923Z,99.90
2019-02-28T23:42:57.844Z,99.90
2019-02-28T23:45:31.058Z,99.90
2019-02-28T23:48:03.085Z,99.90
2019-02-28T23:50:35.054Z,99.90
2019-02-28T23:53:08.105Z,99.90
2019-02-28T23:55:40.988Z,99.90
2019-02-28T23:58:14.154Z,99.90
